sensor_id;sensor_type;location;lat;lon;timestamp;pressure;altitude;pressure_sealevel;temperature;humidity
69411;BME280;56604;48.652;9.194;2023-07-29T00:01:01;95854.88;;;17.22;96.59
69411;BME280;56604;48.652;9.194;2023-07-29T00:03:27;95860.19;;;17.22;96.39
69411;BME280;56604;48.652;9.194;2023-07-29T00:05:52;95852.53;;;17.20;96.08
69411;BME280;56604;48.652;9.194;2023-07-29T00:08:17;95849.44;;;17.27;95.83
69411;BME280;56604;48.652;9.194;2023-07-29T00:10:43;95846.78;;;17.27;95.56
69411;BME280;56604;48.652;9.194;2023-07-29T00:13:08;95846.16;;;17.30;95.36
69411;BME280;56604;48.652;9.194;2023-07-29T00:15:34;95847.66;;;17.36;95.30
69411;BME280;56604;48.652;9.194;2023-07-29T00:17:59;95845.00;;;17.36;95.18
69411;BME280;56604;48.652;9.194;2023-07-29T00:20:24;95847.16;;;17.34;95.27
69411;BME280;56604;48.652;9.194;2023-07-29T00:22:50;95847.16;;;17.34;95.12
69411;BME280;56604;48.652;9.194;2023-07-29T00:25:18;95839.69;;;17.36;94.98
69411;BME280;56604;48.652;9.194;2023-07-29T00:27:43;95838.88;;;17.36;95.20
69411;BME280;56604;48.652;9.194;2023-07-29T00:30:09;95839.69;;;17.36;94.87
69411;BME280;56604;48.652;9.194;2023-07-29T00:32:35;95840.13;;;17.38;95.15
69411;BME280;56604;48.652;9.194;2023-07-29T00:35:00;95842.81;;;17.38;95.44
69411;BME280;56604;48.652;9.194;2023-07-29T00:37:26;95837.81;;;17.37;95.34
69411;BME280;56604;48.652;9.194;2023-07-29T00:39:51;95830.59;;;17.37;95.08
69411;BME280;56604;48.652;9.194;2023-07-29T00:42:17;95832.94;;;17.39;94.57
69411;BME280;56604;48.652;9.194;2023-07-29T00:44:42;95834.38;;;17.36;94.76
69411;BME280;56604;48.652;9.194;2023-07-29T00:47:07;95837.03;;;17.36;94.72
69411;BME280;56604;48.652;9.194;2023-07-29T00:49:33;95839.53;;;17.41;94.46
69411;BME280;56604;48.652;9.194;2023-07-29T00:51:58;95841.25;;;17.37;94.88
69411;BME280;56604;48.652;9.194;2023-07-29T00:54:24;95841.25;;;17.37;94.73
69411;BME280;56604;48.652;9.194;2023-07-29T00:56:49;95835.16;;;17.37;94.31
69411;BME280;56604;48.652;9.194;2023-07-29T00:59:15;95836.88;;;17.41;93.98
69411;BME280;56604;48.652;9.194;2023-07-29T01:01:40;95833.16;;;17.42;94.00
69411;BME280;56604;48.652;9.194;2023-07-29T01:04:05;95827.63;;;17.39;94.81
69411;BME280;56604;48.652;9.194;2023-07-29T01:11:55;95832.22;;;17.47;93.71
69411;BME280;56604;48.652;9.194;2023-07-29T01:16:57;95822.88;;;17.49;93.70
69411;BME280;56604;48.652;9.194;2023-07-29T01:19:40;95819.13;;;17.50;93.61
69411;BME280;56604;48.652;9.194;2023-07-29T01:22:08;95822.88;;;17.49;93.02
69411;BME280;56604;48.652;9.194;2023-07-29T01:24:34;95819.59;;;17.52;93.50
69411;BME280;56604;48.652;9.194;2023-07-29T01:26:59;95816.00;;;17.48;93.70
69411;BME280;56604;48.652;9.194;2023-07-29T01:29:27;95810.69;;;17.48;93.75
69411;BME280;56604;48.652;9.194;2023-07-29T01:31:54;95819.13;;;17.50;93.25
69411;BME280;56604;48.652;9.194;2023-07-29T01:34:29;95820.69;;;17.51;93.64
69411;BME280;56604;48.652;9.194;2023-07-29T01:36:57;95823.84;;;17.53;93.16
69411;BME280;56604;48.652;9.194;2023-07-29T01:39:27;95832.16;;;17.61;92.84
69411;BME280;56604;48.652;9.194;2023-07-29T01:41:54;95827.34;;;17.63;92.22
69411;BME280;56604;48.652;9.194;2023-07-29T01:44:20;95818.25;;;17.64;91.92
69411;BME280;56604;48.652;9.194;2023-07-29T01:46:46;95823.84;;;17.53;93.16
69411;BME280;56604;48.652;9.194;2023-07-29T01:49:12;95819.13;;;17.50;93.47
69411;BME280;56604;48.652;9.194;2023-07-29T01:51:37;95815.38;;;17.51;93.49
69411;BME280;56604;48.652;9.194;2023-07-29T01:54:03;95812.72;;;17.51;94.16
69411;BME280;56604;48.652;9.194;2023-07-29T01:56:28;95819.13;;;17.50;93.98
69411;BME280;56604;48.652;9.194;2023-07-29T01:58:53;95814.88;;;17.49;93.30
69411;BME280;56604;48.652;9.194;2023-07-29T02:01:19;95813.34;;;17.48;93.88
69411;BME280;56604;48.652;9.194;2023-07-29T02:03:44;95801.91;;;17.48;93.78
69411;BME280;56604;48.652;9.194;2023-07-29T02:06:09;95798.16;;;17.49;93.64
69411;BME280;56604;48.652;9.194;2023-07-29T02:08:34;95806.75;;;17.46;93.57
69411;BME280;56604;48.652;9.194;2023-07-29T02:11:00;95808.63;;;17.45;93.64
69411;BME280;56604;48.652;9.194;2023-07-29T02:13:25;95800.66;;;17.45;93.78
69411;BME280;56604;48.652;9.194;2023-07-29T02:15:50;95790.97;;;17.49;93.94
69411;BME280;56604;48.652;9.194;2023-07-29T02:18:16;95793.41;;;17.37;94.40
69411;BME280;56604;48.652;9.194;2023-07-29T02:20:42;95785.56;;;17.32;94.18
69411;BME280;56604;48.652;9.194;2023-07-29T02:23:14;95786.03;;;17.34;93.99
69411;BME280;56604;48.652;9.194;2023-07-29T02:25:39;95783.38;;;17.34;94.65
69411;BME280;56604;48.652;9.194;2023-07-29T02:28:05;95781.78;;;17.33;94.18
69411;BME280;56604;48.652;9.194;2023-07-29T02:30:30;95783.22;;;17.30;95.09
69411;BME280;56604;48.652;9.194;2023-07-29T02:32:55;95782.59;;;17.34;94.60
69411;BME280;56604;48.652;9.194;2023-07-29T02:35:21;95786.94;;;17.29;94.77
69411;BME280;56604;48.652;9.194;2023-07-29T02:37:46;95784.00;;;17.31;94.72
69411;BME280;56604;48.652;9.194;2023-07-29T02:40:11;95774.75;;;17.28;94.39
69411;BME280;56604;48.652;9.194;2023-07-29T02:42:36;95773.00;;;17.24;94.70
69411;BME280;56604;48.652;9.194;2023-07-29T02:45:02;95787.72;;;17.30;94.86
69411;BME280;56604;48.652;9.194;2023-07-29T02:47:27;95787.72;;;17.30;94.57
69411;BME280;56604;48.652;9.194;2023-07-29T02:49:53;95781.78;;;17.33;94.25
69411;BME280;56604;48.652;9.194;2023-07-29T02:52:18;95778.06;;;17.34;94.55
69411;BME280;56604;48.652;9.194;2023-07-29T02:54:43;95776.63;;;17.28;94.14
69411;BME280;56604;48.652;9.194;2023-07-29T02:57:09;95779.13;;;17.33;94.79
69411;BME280;56604;48.652;9.194;2023-07-29T02:59:34;95771.78;;;17.30;94.82
69411;BME280;56604;48.652;9.194;2023-07-29T03:01:59;95770.09;;;17.34;94.65
69411;BME280;56604;48.652;9.194;2023-07-29T03:04:25;95769.00;;;17.35;94.25
69411;BME280;56604;48.652;9.194;2023-07-29T03:06:50;95767.44;;;17.34;93.97
69411;BME280;56604;48.652;9.194;2023-07-29T03:09:15;95773.72;;;17.38;93.74
69411;BME280;56604;48.652;9.194;2023-07-29T03:11:40;95767.78;;;17.41;92.87
69411;BME280;56604;48.652;9.194;2023-07-29T03:14:06;95758.25;;;17.40;93.03
69411;BME280;56604;48.652;9.194;2023-07-29T03:16:31;95764.47;;;17.36;93.89
69411;BME280;56604;48.652;9.194;2023-07-29T03:18:56;95757.75;;;17.38;92.92
69411;BME280;56604;48.652;9.194;2023-07-29T03:21:22;95756.50;;;17.36;93.38
69411;BME280;56604;48.652;9.194;2023-07-29T03:23:48;95757.88;;;17.33;93.48
69411;BME280;56604;48.652;9.194;2023-07-29T03:26:13;95746.03;;;17.30;93.72
69411;BME280;56604;48.652;9.194;2023-07-29T03:28:41;95743.66;;;17.29;93.74
69411;BME280;56604;48.652;9.194;2023-07-29T03:31:07;95734.41;;;17.26;94.42
69411;BME280;56604;48.652;9.194;2023-07-29T03:33:32;95739.72;;;17.26;94.10
69411;BME280;56604;48.652;9.194;2023-07-29T03:35:58;95744.59;;;17.33;93.07
69411;BME280;56604;48.652;9.194;2023-07-29T03:38:23;95744.03;;;17.36;93.34
69411;BME280;56604;48.652;9.194;2023-07-29T03:40:50;95740.13;;;17.42;93.39
69411;BME280;56604;48.652;9.194;2023-07-29T03:43:16;95746.53;;;17.41;92.70
69411;BME280;56604;48.652;9.194;2023-07-29T03:45:41;95746.53;;;17.41;93.12
69411;BME280;56604;48.652;9.194;2023-07-29T03:48:06;95736.69;;;17.42;93.41
69411;BME280;56604;48.652;9.194;2023-07-29T03:50:33;95742.66;;;17.47;93.10
69411;BME280;56604;48.652;9.194;2023-07-29T03:53:00;95743.13;;;17.49;92.50
69411;BME280;56604;48.652;9.194;2023-07-29T03:55:25;95744.72;;;17.50;92.95
69411;BME280;56604;48.652;9.194;2023-07-29T03:57:50;95747.22;;;17.56;92.33
69411;BME280;56604;48.652;9.194;2023-07-29T04:00:16;95748.31;;;17.54;92.81
69411;BME280;56604;48.652;9.194;2023-07-29T04:02:42;95744.44;;;17.61;92.58
69411;BME280;56604;48.652;9.194;2023-07-29T04:05:07;95745.25;;;17.70;91.92
69411;BME280;56604;48.652;9.194;2023-07-29T04:07:35;95746.22;;;17.74;92.11
69411;BME280;56604;48.652;9.194;2023-07-29T04:10:01;95740.88;;;17.65;92.37
69411;BME280;56604;48.652;9.194;2023-07-29T04:12:27;95741.19;;;17.72;92.09
69411;BME280;56604;48.652;9.194;2023-07-29T04:14:52;95741.97;;;17.73;91.43
69411;BME280;56604;48.652;9.194;2023-07-29T04:17:17;95735.09;;;17.72;91.45
69411;BME280;56604;48.652;9.194;2023-07-29T04:19:43;95733.53;;;17.71;92.56
69411;BME280;56604;48.652;9.194;2023-07-29T04:22:08;95735.09;;;17.72;92.11
69411;BME280;56604;48.652;9.194;2023-07-29T04:24:33;95731.97;;;17.70;92.72
69411;BME280;56604;48.652;9.194;2023-07-29T04:26:59;95741.53;;;17.71;92.21
69411;BME280;56604;48.652;9.194;2023-07-29T04:29:24;95732.94;;;17.74;92.31
69411;BME280;56604;48.652;9.194;2023-07-29T04:31:50;95740.41;;;17.72;92.46
69411;BME280;56604;48.652;9.194;2023-07-29T04:34:16;95739.66;;;17.71;93.06
69411;BME280;56604;48.652;9.194;2023-07-29T04:36:41;95751.50;;;17.65;93.72
69411;BME280;56604;48.652;9.194;2023-07-29T04:39:07;95767.63;;;17.69;92.76
69411;BME280;56604;48.652;9.194;2023-07-29T04:41:33;95769.63;;;17.63;93.69
69411;BME280;56604;48.652;9.194;2023-07-29T04:43:58;95757.63;;;17.43;95.50
69411;BME280;56604;48.652;9.194;2023-07-29T04:46:23;95751.34;;;17.30;96.70
69411;BME280;56604;48.652;9.194;2023-07-29T04:48:49;95748.00;;;17.25;97.69
69411;BME280;56604;48.652;9.194;2023-07-29T04:51:14;95743.47;;;17.25;96.63
69411;BME280;56604;48.652;9.194;2023-07-29T04:53:39;95754.41;;;17.24;96.41
69411;BME280;56604;48.652;9.194;2023-07-29T04:56:05;95761.16;;;17.30;96.13
69411;BME280;56604;48.652;9.194;2023-07-29T04:58:30;95758.63;;;17.25;96.75
69411;BME280;56604;48.652;9.194;2023-07-29T05:00:55;95763.16;;;17.24;96.29
69411;BME280;56604;48.652;9.194;2023-07-29T05:03:21;95779.91;;;17.25;96.70
69411;BME280;56604;48.652;9.194;2023-07-29T05:05:46;95784.00;;;17.31;95.81
69411;BME280;56604;48.652;9.194;2023-07-29T05:08:12;95775.75;;;17.41;94.76
69411;BME280;56604;48.652;9.194;2023-07-29T05:10:37;95765.00;;;17.46;95.54
69411;BME280;56604;48.652;9.194;2023-07-29T05:13:02;95770.38;;;17.33;96.19
69411;BME280;56604;48.652;9.194;2023-07-29T05:15:28;95783.38;;;17.34;95.49
69411;BME280;56604;48.652;9.194;2023-07-29T05:17:53;95783.38;;;17.34;95.68
69411;BME280;56604;48.652;9.194;2023-07-29T05:20:18;95778.91;;;17.43;95.46
69411;BME280;56604;48.652;9.194;2023-07-29T05:22:43;95787.25;;;17.50;95.91
69411;BME280;56604;48.652;9.194;2023-07-29T05:25:09;95786.63;;;17.53;95.29
69411;BME280;56604;48.652;9.194;2023-07-29T05:27:34;95784.88;;;17.49;95.86
69411;BME280;56604;48.652;9.194;2023-07-29T05:29:59;95778.50;;;17.59;95.50
69411;BME280;56604;48.652;9.194;2023-07-29T05:32:25;95778.16;;;17.51;96.12
69411;BME280;56604;48.652;9.194;2023-07-29T05:34:50;95771.81;;;17.39;97.36
69411;BME280;56604;48.652;9.194;2023-07-29T05:37:15;95771.88;;;17.47;97.72
69411;BME280;56604;48.652;9.194;2023-07-29T05:39:41;95759.59;;;17.29;99.06
69411;BME280;56604;48.652;9.194;2023-07-29T05:42:06;95764.78;;;17.34;99.67
69411;BME280;56604;48.652;9.194;2023-07-29T05:44:31;95761.53;;;17.68;99.34
69411;BME280;56604;48.652;9.194;2023-07-29T05:46:57;95761.72;;;18.20;97.65
69411;BME280;56604;48.652;9.194;2023-07-29T05:49:23;95772.63;;;18.68;93.91
69411;BME280;56604;48.652;9.194;2023-07-29T05:51:48;95761.22;;;19.02;91.58
69411;BME280;56604;48.652;9.194;2023-07-29T05:54:13;95756.81;;;19.15;89.95
69411;BME280;56604;48.652;9.194;2023-07-29T05:56:39;95757.94;;;19.05;90.00
69411;BME280;56604;48.652;9.194;2023-07-29T05:59:04;95751.03;;;18.86;90.69
69411;BME280;56604;48.652;9.194;2023-07-29T06:01:29;95750.72;;;18.79;91.27
69411;BME280;56604;48.652;9.194;2023-07-29T06:03:54;95747.13;;;18.75;91.64
69411;BME280;56604;48.652;9.194;2023-07-29T06:06:20;95759.03;;;18.86;91.91
69411;BME280;56604;48.652;9.194;2023-07-29T06:08:45;95754.66;;;18.99;92.39
69411;BME280;56604;48.652;9.194;2023-07-29T06:11:10;95750.63;;;19.49;90.91
69411;BME280;56604;48.652;9.194;2023-07-29T06:13:36;95751.00;;;20.75;85.57
69411;BME280;56604;48.652;9.194;2023-07-29T06:16:01;95758.28;;;21.74;81.05
69411;BME280;56604;48.652;9.194;2023-07-29T06:18:26;95758.72;;;21.76;79.75
69411;BME280;56604;48.652;9.194;2023-07-29T06:20:52;95760.53;;;21.96;78.29
69411;BME280;56604;48.652;9.194;2023-07-29T06:23:17;95764.47;;;21.53;79.24
69411;BME280;56604;48.652;9.194;2023-07-29T06:25:42;95764.94;;;21.01;82.25
69411;BME280;56604;48.652;9.194;2023-07-29T06:28:09;95770.28;;;21.01;82.57
69411;BME280;56604;48.652;9.194;2023-07-29T06:30:35;95762.94;;;20.48;84.71
69411;BME280;56604;48.652;9.194;2023-07-29T06:33:00;95768.69;;;21.21;82.50
69411;BME280;56604;48.652;9.194;2023-07-29T06:35:26;95770.03;;;21.15;82.46
69411;BME280;56604;48.652;9.194;2023-07-29T06:37:51;95770.84;;;21.28;81.24
69411;BME280;56604;48.652;9.194;2023-07-29T06:40:16;95774.00;;;20.88;82.90
69411;BME280;56604;48.652;9.194;2023-07-29T06:42:42;95769.91;;;20.70;84.34
69411;BME280;56604;48.652;9.194;2023-07-29T06:45:07;95774.59;;;20.73;82.97
69411;BME280;56604;48.652;9.194;2023-07-29T06:47:33;95786.75;;;20.32;85.36
69411;BME280;56604;48.652;9.194;2023-07-29T06:49:58;95786.75;;;20.32;84.80
69411;BME280;56604;48.652;9.194;2023-07-29T06:52:23;95791.41;;;19.75;87.42
69411;BME280;56604;48.652;9.194;2023-07-29T06:54:49;95803.97;;;19.49;88.74
69411;BME280;56604;48.652;9.194;2023-07-29T06:57:14;95808.56;;;18.96;91.04
69411;BME280;56604;48.652;9.194;2023-07-29T06:59:39;95792.53;;;18.70;94.69
69411;BME280;56604;48.652;9.194;2023-07-29T07:02:06;95811.47;;;18.60;92.13
69411;BME280;56604;48.652;9.194;2023-07-29T07:04:32;95829.91;;;18.48;93.02
69411;BME280;56604;48.652;9.194;2023-07-29T07:06:57;95860.44;;;18.41;95.17
69411;BME280;56604;48.652;9.194;2023-07-29T07:09:22;95831.38;;;18.14;96.41
69411;BME280;56604;48.652;9.194;2023-07-29T07:11:47;95818.53;;;18.07;95.06
69411;BME280;56604;48.652;9.194;2023-07-29T07:14:13;95817.06;;;18.01;94.89
69411;BME280;56604;48.652;9.194;2023-07-29T07:16:38;95816.38;;;17.87;94.76
69411;BME280;56604;48.652;9.194;2023-07-29T07:19:04;95811.06;;;17.87;95.47
69411;BME280;56604;48.652;9.194;2023-07-29T07:21:30;95804.41;;;17.75;96.20
69411;BME280;56604;48.652;9.194;2023-07-29T07:23:55;95799.41;;;17.74;97.08
69411;BME280;56604;48.652;9.194;2023-07-29T07:26:20;95811.25;;;17.68;97.42
69411;BME280;56604;48.652;9.194;2023-07-29T07:28:45;95805.47;;;17.66;98.45
69411;BME280;56604;48.652;9.194;2023-07-29T07:31:11;95814.03;;;17.85;97.10
69411;BME280;56604;48.652;9.194;2023-07-29T07:33:36;95804.34;;;17.89;97.56
69411;BME280;56604;48.652;9.194;2023-07-29T07:36:01;95801.22;;;17.87;97.82
69411;BME280;56604;48.652;9.194;2023-07-29T07:38:27;95805.16;;;17.98;98.21
69411;BME280;56604;48.652;9.194;2023-07-29T07:40:56;95808.72;;;18.25;98.40
69411;BME280;56604;48.652;9.194;2023-07-29T07:43:22;95808.19;;;18.63;97.04
69411;BME280;56604;48.652;9.194;2023-07-29T07:45:47;95809.59;;;18.69;96.37
69411;BME280;56604;48.652;9.194;2023-07-29T07:48:12;95805.84;;;18.61;97.18
69411;BME280;56604;48.652;9.194;2023-07-29T07:50:39;95809.25;;;18.45;97.60
69411;BME280;56604;48.652;9.194;2023-07-29T07:53:04;95812.66;;;18.36;98.07
69411;BME280;56604;48.652;9.194;2023-07-29T07:55:29;95805.75;;;18.35;98.37
69411;BME280;56604;48.652;9.194;2023-07-29T07:57:54;95804.38;;;18.47;98.99
69411;BME280;56604;48.652;9.194;2023-07-29T08:00:20;95814.75;;;18.57;99.08
69411;BME280;56604;48.652;9.194;2023-07-29T08:02:45;95815.88;;;18.73;98.23
69411;BME280;56604;48.652;9.194;2023-07-29T08:05:11;95810.28;;;19.18;97.08
69411;BME280;56604;48.652;9.194;2023-07-29T08:07:36;95813.88;;;19.14;96.16
69411;BME280;56604;48.652;9.194;2023-07-29T08:10:01;95816.38;;;19.45;95.44
69411;BME280;56604;48.652;9.194;2023-07-29T08:12:27;95824.53;;;19.31;95.97
69411;BME280;56604;48.652;9.194;2023-07-29T08:14:52;95820.75;;;19.67;94.13
69411;BME280;56604;48.652;9.194;2023-07-29T08:17:17;95822.47;;;19.71;93.04
69411;BME280;56604;48.652;9.194;2023-07-29T08:19:43;95822.13;;;20.20;91.98
69411;BME280;56604;48.652;9.194;2023-07-29T08:22:08;95818.59;;;20.07;90.93
69411;BME280;56604;48.652;9.194;2023-07-29T08:24:34;95824.63;;;19.87;91.27
69411;BME280;56604;48.652;9.194;2023-07-29T08:26:59;95829.06;;;20.21;90.94
69411;BME280;56604;48.652;9.194;2023-07-29T08:29:24;95823.66;;;20.68;87.98
69411;BME280;56604;48.652;9.194;2023-07-29T08:31:50;95824.53;;;20.81;88.94
69411;BME280;56604;48.652;9.194;2023-07-29T08:34:16;95838.84;;;20.97;87.92
69411;BME280;56604;48.652;9.194;2023-07-29T08:36:42;95831.44;;;20.52;88.24
69411;BME280;56604;48.652;9.194;2023-07-29T08:39:07;95833.72;;;20.92;88.68
69411;BME280;56604;48.652;9.194;2023-07-29T08:41:37;95828.03;;;21.56;85.40
69411;BME280;56604;48.652;9.194;2023-07-29T08:44:21;95828.19;;;22.30;82.08
69411;BME280;56604;48.652;9.194;2023-07-29T08:46:47;95832.44;;;22.43;80.42
69411;BME280;56604;48.652;9.194;2023-07-29T08:49:13;95837.75;;;23.05;77.69
69411;BME280;56604;48.652;9.194;2023-07-29T08:51:42;95841.09;;;23.02;78.93
69411;BME280;56604;48.652;9.194;2023-07-29T08:54:07;95839.84;;;23.52;76.01
69411;BME280;56604;48.652;9.194;2023-07-29T08:56:34;95827.66;;;24.14;73.85
69411;BME280;56604;48.652;9.194;2023-07-29T08:59:00;95826.47;;;24.43;72.58
69411;BME280;56604;48.652;9.194;2023-07-29T09:01:27;95832.94;;;25.29;70.19
69411;BME280;56604;48.652;9.194;2023-07-29T09:03:53;95837.59;;;25.90;68.13
69411;BME280;56604;48.652;9.194;2023-07-29T09:06:19;95827.91;;;27.11;63.47
69411;BME280;56604;48.652;9.194;2023-07-29T09:08:47;95831.59;;;26.23;65.78
69411;BME280;56604;48.652;9.194;2023-07-29T09:11:14;95831.56;;;25.77;67.61
69411;BME280;56604;48.652;9.194;2023-07-29T09:13:44;95832.53;;;24.56;71.95
69411;BME280;56604;48.652;9.194;2023-07-29T09:16:09;95829.31;;;25.41;70.62
69411;BME280;56604;48.652;9.194;2023-07-29T09:18:35;95823.38;;;26.62;64.78
69411;BME280;56604;48.652;9.194;2023-07-29T09:21:01;95830.28;;;27.47;62.38
69411;BME280;56604;48.652;9.194;2023-07-29T09:23:26;95823.22;;;26.06;63.83
69411;BME280;56604;48.652;9.194;2023-07-29T09:26:00;95818.59;;;26.79;63.40
69411;BME280;56604;48.652;9.194;2023-07-29T09:28:26;95815.28;;;26.13;62.57
69411;BME280;56604;48.652;9.194;2023-07-29T09:30:52;95806.03;;;26.14;65.61
69411;BME280;56604;48.652;9.194;2023-07-29T09:33:18;95797.72;;;26.22;62.52
69411;BME280;56604;48.652;9.194;2023-07-29T09:35:44;95803.84;;;24.80;67.13
69411;BME280;56604;48.652;9.194;2023-07-29T09:38:14;95796.72;;;26.08;66.33
69411;BME280;56604;48.652;9.194;2023-07-29T09:40:40;95793.78;;;25.93;66.71
69411;BME280;56604;48.652;9.194;2023-07-29T09:43:07;95786.56;;;26.24;65.22
69411;BME280;56604;48.652;9.194;2023-07-29T09:45:34;95803.63;;;25.24;67.19
69411;BME280;56604;48.652;9.194;2023-07-29T09:48:00;95804.03;;;26.07;64.78
69411;BME280;56604;48.652;9.194;2023-07-29T09:50:27;95819.66;;;26.47;63.54
69411;BME280;56604;48.652;9.194;2023-07-29T09:52:55;95810.00;;;26.46;64.65
69411;BME280;56604;48.652;9.194;2023-07-29T09:55:24;95790.09;;;26.28;64.62
69411;BME280;56604;48.652;9.194;2023-07-29T09:58:00;95794.31;;;27.09;63.23
69411;BME280;56604;48.652;9.194;2023-07-29T10:00:28;95801.81;;;27.19;60.89
69411;BME280;56604;48.652;9.194;2023-07-29T10:02:54;95796.03;;;27.92;59.14
69411;BME280;56604;48.652;9.194;2023-07-29T10:05:21;95801.19;;;26.50;61.73
69411;BME280;56604;48.652;9.194;2023-07-29T10:07:48;95800.81;;;27.34;61.50
69411;BME280;56604;48.652;9.194;2023-07-29T10:10:14;95806.41;;;26.88;61.30
69411;BME280;56604;48.652;9.194;2023-07-29T10:12:41;95801.06;;;27.90;59.27
69411;BME280;56604;48.652;9.194;2023-07-29T10:15:08;95799.97;;;27.98;59.23
69411;BME280;56604;48.652;9.194;2023-07-29T10:17:36;95796.41;;;28.35;56.99
69411;BME280;56604;48.652;9.194;2023-07-29T10:20:03;95802.13;;;27.82;58.47
69411;BME280;56604;48.652;9.194;2023-07-29T10:22:33;95796.56;;;27.67;59.04
69411;BME280;56604;48.652;9.194;2023-07-29T10:25:04;95803.78;;;27.22;59.62
69411;BME280;56604;48.652;9.194;2023-07-29T10:27:38;95791.38;;;25.69;63.22
69411;BME280;56604;48.652;9.194;2023-07-29T10:30:06;95799.69;;;26.02;62.43
69411;BME280;56604;48.652;9.194;2023-07-29T10:32:32;95799.09;;;26.13;63.08
69411;BME280;56604;48.652;9.194;2023-07-29T10:34:58;95796.50;;;26.20;62.66
69411;BME280;56604;48.652;9.194;2023-07-29T10:37:23;95793.66;;;26.59;61.14
69411;BME280;56604;48.652;9.194;2023-07-29T10:39:55;95794.22;;;27.66;58.90
69411;BME280;56604;48.652;9.194;2023-07-29T10:42:21;95783.91;;;28.19;54.87
69411;BME280;56604;48.652;9.194;2023-07-29T10:44:48;95789.50;;;28.41;55.35
69411;BME280;56604;48.652;9.194;2023-07-29T10:47:25;95781.22;;;28.19;53.66
69411;BME280;56604;48.652;9.194;2023-07-29T10:49:56;95780.75;;;28.10;54.76
69411;BME280;56604;48.652;9.194;2023-07-29T10:55:01;95771.97;;;28.83;50.01
69411;BME280;56604;48.652;9.194;2023-07-29T10:57:36;95777.38;;;28.83;50.37
69411;BME280;56604;48.652;9.194;2023-07-29T11:00:03;95783.38;;;28.51;51.39
69411;BME280;56604;48.652;9.194;2023-07-29T11:02:31;95782.25;;;28.04;50.06
69411;BME280;56604;48.652;9.194;2023-07-29T11:04:58;95788.00;;;26.98;52.55
69411;BME280;56604;48.652;9.194;2023-07-29T11:07:25;95796.09;;;26.98;51.90
69411;BME280;56604;48.652;9.194;2023-07-29T11:09:59;95792.78;;;27.08;51.75
69411;BME280;56604;48.652;9.194;2023-07-29T11:17:37;95787.88;;;26.34;55.59
69411;BME280;56604;48.652;9.194;2023-07-29T11:20:04;95799.44;;;26.34;55.27
69411;BME280;56604;48.652;9.194;2023-07-29T11:22:30;95810.66;;;26.63;53.98
69411;BME280;56604;48.652;9.194;2023-07-29T11:24:55;95800.28;;;26.91;54.00
69411;BME280;56604;48.652;9.194;2023-07-29T11:27:21;95797.59;;;27.22;52.99
69411;BME280;56604;48.652;9.194;2023-07-29T11:29:46;95804.47;;;27.16;54.93
69411;BME280;56604;48.652;9.194;2023-07-29T11:32:12;95795.19;;;27.47;52.60
69411;BME280;56604;48.652;9.194;2023-07-29T11:34:38;95800.81;;;27.68;50.91
69411;BME280;56604;48.652;9.194;2023-07-29T11:37:05;95794.56;;;27.98;50.63
69411;BME280;56604;48.652;9.194;2023-07-29T11:39:31;95799.91;;;27.57;50.50
69411;BME280;56604;48.652;9.194;2023-07-29T11:41:58;95797.06;;;27.43;50.65
69411;BME280;56604;48.652;9.194;2023-07-29T11:44:23;95780.84;;;27.43;51.44
69411;BME280;56604;48.652;9.194;2023-07-29T11:46:49;95781.06;;;27.98;49.56
69411;BME280;56604;48.652;9.194;2023-07-29T11:49:15;95780.88;;;28.24;51.09
69411;BME280;56604;48.652;9.194;2023-07-29T11:51:41;95771.94;;;28.20;49.22
69411;BME280;56604;48.652;9.194;2023-07-29T11:54:08;95776.44;;;27.61;48.80
69411;BME280;56604;48.652;9.194;2023-07-29T11:56:33;95781.19;;;27.38;49.16
69411;BME280;56604;48.652;9.194;2023-07-29T11:58:59;95788.47;;;27.71;49.61
69411;BME280;56604;48.652;9.194;2023-07-29T12:01:25;95774.78;;;28.35;50.07
69411;BME280;56604;48.652;9.194;2023-07-29T12:03:51;95783.34;;;28.44;48.40
69411;BME280;56604;48.652;9.194;2023-07-29T12:06:16;95786.72;;;27.86;49.05
69411;BME280;56604;48.652;9.194;2023-07-29T12:08:42;95779.78;;;27.85;49.41
69411;BME280;56604;48.652;9.194;2023-07-29T12:11:09;95783.47;;;27.69;48.69
69411;BME280;56604;48.652;9.194;2023-07-29T12:13:36;95780.69;;;27.28;48.99
69411;BME280;56604;48.652;9.194;2023-07-29T12:16:02;95768.81;;;27.03;49.51
69411;BME280;56604;48.652;9.194;2023-07-29T12:18:35;95778.88;;;27.06;50.28
69411;BME280;56604;48.652;9.194;2023-07-29T12:21:01;95775.00;;;27.37;49.84
69411;BME280;56604;48.652;9.194;2023-07-29T12:23:28;95773.22;;;27.52;48.52
69411;BME280;56604;48.652;9.194;2023-07-29T12:25:57;95772.47;;;27.18;49.83
69411;BME280;56604;48.652;9.194;2023-07-29T12:28:23;95774.34;;;26.53;49.33
69411;BME280;56604;48.652;9.194;2023-07-29T12:30:56;95767.84;;;26.88;50.61
69411;BME280;56604;48.652;9.194;2023-07-29T12:33:32;95768.84;;;27.36;49.57
69411;BME280;56604;48.652;9.194;2023-07-29T12:35:58;95766.09;;;27.70;49.68
69411;BME280;56604;48.652;9.194;2023-07-29T12:38:26;95775.34;;;27.69;49.11
69411;BME280;56604;48.652;9.194;2023-07-29T12:40:51;95772.09;;;27.53;48.45
69411;BME280;56604;48.652;9.194;2023-07-29T12:43:17;95766.13;;;27.36;47.65
69411;BME280;56604;48.652;9.194;2023-07-29T12:45:42;95770.03;;;27.09;48.34
69411;BME280;56604;48.652;9.194;2023-07-29T12:48:09;95767.56;;;26.97;46.51
69411;BME280;56604;48.652;9.194;2023-07-29T12:50:34;95770.06;;;26.79;48.48
69411;BME280;56604;48.652;9.194;2023-07-29T12:52:59;95775.91;;;26.58;47.51
69411;BME280;56604;48.652;9.194;2023-07-29T12:55:24;95772.22;;;26.69;48.70
69411;BME280;56604;48.652;9.194;2023-07-29T12:57:50;95767.44;;;26.56;49.42
69411;BME280;56604;48.652;9.194;2023-07-29T13:00:15;95772.03;;;26.06;49.05
69411;BME280;56604;48.652;9.194;2023-07-29T13:02:40;95773.06;;;26.24;49.64
69411;BME280;56604;48.652;9.194;2023-07-29T13:05:10;95773.06;;;26.24;49.63
69411;BME280;56604;48.652;9.194;2023-07-29T13:07:38;95772.63;;;26.45;48.87
69411;BME280;56604;48.652;9.194;2023-07-29T13:10:04;95765.88;;;26.55;48.74